createdAt,value
2022-10-17T00:01:37.312Z,20.80
2022-10-17T00:04:04.411Z,20.80
2022-10-17T00:06:31.457Z,20.80
2022-10-17T00:08:58.550Z,20.80
2022-10-17T00:11:25.697Z,20.70
2022-10-17T00:13:54.753Z,20.80
2022-10-17T00:16:25.912Z,20.80
2022-10-17T00:18:53.270Z,20.70
2022-10-17T00:21:20.924Z,20.70
2022-10-17T00:23:48.306Z,20.70
2022-10-17T00:26:16.311Z,20.70
2022-10-17T00:28:46.250Z,20.70
2022-10-17T00:31:13.746Z,20.70
2022-10-17T00:33:40.881Z,20.70
2022-10-17T00:36:12.577Z,20.70
2022-10-17T00:38:40.672Z,20.70
2022-10-17T00:41:13.590Z,20.70
2022-10-17T00:43:54.373Z,20.70
2022-10-17T00:46:22.952Z,20.70
2022-10-17T00:48:51.993Z,20.70
2022-10-17T00:51:20.743Z,20.70
2022-10-17T00:53:48.305Z,20.70
2022-10-17T00:56:15.653Z,20.70
2022-10-17T00:58:44.263Z,20.70
2022-10-17T01:01:11.399Z,20.70
2022-10-17T01:03:38.608Z,20.70
2022-10-17T01:06:05.688Z,20.70
2022-10-17T01:08:32.844Z,20.70
2022-10-17T01:11:08.900Z,20.70
2022-10-17T01:13:39.501Z,20.70
2022-10-17T01:16:19.773Z,20.70
2022-10-17T01:18:49.802Z,20.60
2022-10-17T01:21:35.701Z,20.60
2022-10-17T01:24:09.027Z,20.60
2022-10-17T01:26:48.356Z,20.60
2022-10-17T01:29:25.716Z,20.60
2022-10-17T01:31:56.460Z,20.60
2022-10-17T01:34:36.096Z,20.60
2022-10-17T01:37:08.251Z,20.60
2022-10-17T01:39:47.724Z,20.60
2022-10-17T01:42:18.663Z,20.60
2022-10-17T01:44:59.913Z,20.60
2022-10-17T01:47:29.666Z,20.60
2022-10-17T01:50:01.211Z,20.60
2022-10-17T01:52:32.598Z,20.60
2022-10-17T01:55:14.909Z,20.60
2022-10-17T01:57:46.181Z,20.60
2022-10-17T02:00:18.489Z,20.60
2022-10-17T02:02:53.272Z,20.60
2022-10-17T02:05:22.676Z,20.60
2022-10-17T02:07:49.699Z,20.60
2022-10-17T02:10:21.687Z,20.60
2022-10-17T02:12:54.670Z,20.50
2022-10-17T02:15:38.841Z,20.50
2022-10-17T02:18:09.801Z,20.60
2022-10-17T02:20:46.108Z,20.50
2022-10-17T02:23:21.952Z,20.50
2022-10-17T02:25:52.509Z,20.50
2022-10-17T02:28:19.592Z,20.50
2022-10-17T02:30:49.877Z,20.50
2022-10-17T02:33:20.994Z,20.50
2022-10-17T02:35:51.142Z,20.50
2022-10-17T02:38:20.035Z,20.50
2022-10-17T02:40:48.331Z,20.50
2022-10-17T02:43:15.553Z,20.50
2022-10-17T02:45:42.573Z,20.50
2022-10-17T02:48:14.705Z,20.50
2022-10-17T02:51:11.209Z,20.50
2022-10-17T02:53:44.057Z,20.50
2022-10-17T02:56:17.278Z,20.50
2022-10-17T02:58:46.885Z,20.50
2022-10-17T03:01:15.620Z,20.40
2022-10-17T03:03:43.516Z,20.50
2022-10-17T03:06:10.597Z,20.40
2022-10-17T03:11:05.721Z,20.50
2022-10-17T03:13:36.214Z,20.40
2022-10-17T03:16:06.360Z,20.40
2022-10-17T03:18:33.640Z,20.40
2022-10-17T03:21:03.051Z,20.40
2022-10-17T03:23:30.269Z,20.40
2022-10-17T03:25:57.822Z,20.40
2022-10-17T03:28:24.909Z,20.40
2022-10-17T03:30:51.980Z,20.40
2022-10-17T03:33:19.068Z,20.40
2022-10-17T03:35:46.182Z,20.40
2022-10-17T03:38:13.572Z,20.50
2022-10-17T03:40:40.620Z,20.40
2022-10-17T03:43:07.984Z,20.40
2022-10-17T03:45:35.238Z,20.40
2022-10-17T03:48:02.276Z,20.40
2022-10-17T03:50:30.350Z,20.40
2022-10-17T03:52:58.858Z,20.40
2022-10-17T03:55:25.912Z,20.40
2022-10-17T03:57:53.201Z,20.40
2022-10-17T04:00:21.780Z,20.40
2022-10-17T04:02:55.218Z,20.50
2022-10-17T04:05:22.862Z,20.50
2022-10-17T04:07:50.005Z,20.50
2022-10-17T04:10:20.263Z,20.50
2022-10-17T04:12:48.273Z,20.60
2022-10-17T04:15:15.379Z,20.60
2022-10-17T04:17:42.432Z,20.60
2022-10-17T04:20:09.768Z,20.60
2022-10-17T04:22:37.509Z,20.60
2022-10-17T04:25:05.005Z,20.70
2022-10-17T04:27:35.112Z,20.70
2022-10-17T04:30:02.176Z,20.60
2022-10-17T04:32:32.040Z,20.70
2022-10-17T04:35:13.225Z,20.70
2022-10-17T04:37:44.960Z,20.70
2022-10-17T04:40:17.677Z,20.70
2022-10-17T04:42:45.242Z,20.70
2022-10-17T04:45:15.517Z,20.70
2022-10-17T04:47:43.686Z,20.70
2022-10-17T04:50:10.744Z,20.70
2022-10-17T04:52:39.429Z,20.70
2022-10-17T04:55:08.274Z,20.70
2022-10-17T04:57:35.976Z,20.70
2022-10-17T05:00:15.728Z,20.70
2022-10-17T05:03:05.572Z,20.70
2022-10-17T05:05:33.441Z,20.70
2022-10-17T05:08:03.112Z,20.70
2022-10-17T05:10:36.379Z,20.70
2022-10-17T05:13:04.246Z,20.70
2022-10-17T05:15:33.032Z,20.70
2022-10-17T05:18:01.712Z,20.70
2022-10-17T05:20:30.114Z,20.70
2022-10-17T05:22:58.821Z,20.70
2022-10-17T05:25:29.448Z,20.70
2022-10-17T05:27:56.589Z,20.70
2022-10-17T05:30:23.600Z,20.70
2022-10-17T05:32:55.491Z,20.70
2022-10-17T05:35:22.888Z,20.70
2022-10-17T05:37:49.994Z,20.70
2022-10-17T05:40:18.578Z,20.70
2022-10-17T05:42:46.384Z,20.60
2022-10-17T05:45:14.210Z,20.70
2022-10-17T05:47:41.372Z,20.70
2022-10-17T05:50:09.810Z,20.70
2022-10-17T05:52:54.715Z,20.70
2022-10-17T05:55:22.826Z,20.70
2022-10-17T05:57:52.502Z,20.70
2022-10-17T06:00:20.575Z,20.70
2022-10-17T06:02:55.020Z,20.70
2022-10-17T06:05:23.092Z,20.70
2022-10-17T06:07:52.467Z,20.70
2022-10-17T06:10:20.389Z,20.70
2022-10-17T06:12:49.888Z,20.70
2022-10-17T06:15:17.106Z,20.70
2022-10-17T06:17:48.533Z,20.70
2022-10-17T06:20:15.685Z,20.60
2022-10-17T06:22:43.804Z,20.70
2022-10-17T06:25:16.716Z,20.60
2022-10-17T06:27:44.257Z,20.60
2022-10-17T06:30:12.393Z,20.60
2022-10-17T06:32:39.511Z,20.70
2022-10-17T06:35:06.728Z,20.60
2022-10-17T06:37:36.589Z,20.60
2022-10-17T06:40:09.052Z,20.60
2022-10-17T06:42:38.524Z,20.60
2022-10-17T06:45:23.432Z,20.60
2022-10-17T06:48:09.380Z,20.60
2022-10-17T06:50:44.134Z,20.60
2022-10-17T06:53:15.489Z,20.60
2022-10-17T06:55:58.101Z,20.60
2022-10-17T06:58:41.232Z,20.60
2022-10-17T07:01:17.761Z,20.60
2022-10-17T07:03:48.026Z,20.60
2022-10-17T07:06:15.237Z,20.60
2022-10-17T07:08:47.127Z,20.60
2022-10-17T07:11:18.138Z,20.60
2022-10-17T07:13:45.261Z,20.60
2022-10-17T07:16:12.926Z,20.60
2022-10-17T07:18:41.662Z,20.60
2022-10-17T07:21:09.596Z,20.60
2022-10-17T07:23:39.787Z,20.60
2022-10-17T07:26:08.904Z,20.60
2022-10-17T07:28:38.895Z,20.60
2022-10-17T07:31:17.170Z,20.60
2022-10-17T07:36:17.513Z,20.60
2022-10-17T07:38:44.661Z,20.60
2022-10-17T07:41:16.597Z,20.60
2022-10-17T07:43:47.990Z,20.60
2022-10-17T07:46:18.634Z,20.60
2022-10-17T07:48:46.074Z,20.60
2022-10-17T07:51:13.737Z,20.60
2022-10-17T07:53:42.746Z,20.60
2022-10-17T07:56:12.430Z,20.70
2022-10-17T07:58:39.989Z,20.60
2022-10-17T08:01:10.806Z,20.60
2022-10-17T08:03:41.681Z,20.60
2022-10-17T08:06:09.031Z,20.60
2022-10-17T08:08:36.050Z,20.60
2022-10-17T08:11:07.303Z,20.70
2022-10-17T08:13:34.429Z,20.70
2022-10-17T08:16:02.081Z,20.80
2022-10-17T08:18:29.261Z,20.80
2022-10-17T08:21:00.276Z,21.00
2022-10-17T08:23:28.175Z,21.00
2022-10-17T08:25:55.219Z,21.10
2022-10-17T08:28:22.328Z,21.10
2022-10-17T08:30:49.415Z,21.10
2022-10-17T08:33:16.504Z,21.20
2022-10-17T08:35:43.657Z,21.20
2022-10-17T08:38:13.279Z,21.20
2022-10-17T08:40:42.770Z,21.20
2022-10-17T08:43:16.142Z,21.20
2022-10-17T08:45:43.176Z,21.20
2022-10-17T08:48:13.428Z,21.20
2022-10-17T08:50:43.765Z,21.20
2022-10-17T08:53:17.746Z,21.20
2022-10-17T08:55:48.885Z,21.20
2022-10-17T08:58:21.256Z,21.10
2022-10-17T09:01:12.899Z,21.10
2022-10-17T09:04:03.721Z,21.20
2022-10-17T09:06:42.844Z,21.10
2022-10-17T09:09:12.978Z,21.10
2022-10-17T09:11:41.815Z,21.10
2022-10-17T09:14:26.585Z,21.10
2022-10-17T09:17:05.126Z,21.10
2022-10-17T09:19:34.995Z,21.10
2022-10-17T09:22:04.819Z,21.10
2022-10-17T09:24:44.152Z,21.10
2022-10-17T09:27:31.818Z,21.10
2022-10-17T09:30:21.484Z,21.10
2022-10-17T09:33:22.974Z,21.10
2022-10-17T09:35:58.679Z,21.10
2022-10-17T09:38:29.764Z,21.10
2022-10-17T09:40:58.933Z,21.10
2022-10-17T09:43:26.658Z,21.10
2022-10-17T09:45:56.914Z,21.00
2022-10-17T09:48:31.368Z,21.00
2022-10-17T09:51:14.591Z,21.00
2022-10-17T09:53:50.258Z,21.00
2022-10-17T09:56:18.245Z,21.00
2022-10-17T09:58:48.057Z,21.00
2022-10-17T10:01:23.733Z,21.00
2022-10-17T10:04:11.253Z,21.00
2022-10-17T10:06:39.078Z,21.00
2022-10-17T10:09:07.282Z,21.00
2022-10-17T10:11:49.824Z,21.00
2022-10-17T10:14:24.117Z,21.00
2022-10-17T10:16:53.605Z,21.00
2022-10-17T10:19:31.219Z,21.00
2022-10-17T10:22:00.049Z,21.00
2022-10-17T10:24:30.756Z,21.00
2022-10-17T10:27:00.233Z,21.00
2022-10-17T10:29:29.012Z,21.00
2022-10-17T10:31:56.985Z,21.00
2022-10-17T10:34:25.871Z,21.00
2022-10-17T10:37:03.490Z,21.00
2022-10-17T10:39:35.333Z,21.00
2022-10-17T10:42:04.159Z,21.00
2022-10-17T10:44:32.184Z,21.00
2022-10-17T10:47:14.388Z,21.00
2022-10-17T10:49:41.561Z,21.00
2022-10-17T10:52:10.388Z,21.00
2022-10-17T10:57:19.911Z,21.00
2022-10-17T11:00:05.485Z,21.00
2022-10-17T11:02:42.822Z,21.00
2022-10-17T11:05:17.856Z,21.00
2022-10-17T11:07:55.945Z,21.00
2022-10-17T11:10:26.529Z,21.00
2022-10-17T11:12:59.321Z,21.00
2022-10-17T11:15:32.557Z,21.00
2022-10-17T11:18:00.874Z,21.00
2022-10-17T11:20:48.345Z,21.00
2022-10-17T11:23:30.194Z,21.00
2022-10-17T11:25:59.004Z,21.00
2022-10-17T11:28:26.208Z,21.00
2022-10-17T11:30:57.594Z,21.00
2022-10-17T11:33:47.461Z,21.00
2022-10-17T11:36:16.712Z,21.00
2022-10-17T11:38:46.721Z,21.00
2022-10-17T11:41:18.650Z,21.00
2022-10-17T11:43:48.675Z,21.00
2022-10-17T11:46:23.925Z,21.00
2022-10-17T11:48:53.876Z,21.00
2022-10-17T11:54:17.906Z,21.00
2022-10-17T11:56:44.899Z,21.00
2022-10-17T11:59:18.330Z,21.00
2022-10-17T12:02:05.698Z,21.00
2022-10-17T12:04:54.703Z,21.00
2022-10-17T12:10:29.437Z,21.00
2022-10-17T12:12:56.531Z,21.00
2022-10-17T12:15:23.580Z,21.00
2022-10-17T12:17:58.308Z,21.00
2022-10-17T12:20:27.506Z,21.10
2022-10-17T12:22:57.630Z,21.00
2022-10-17T12:25:29.769Z,21.00
2022-10-17T12:28:09.001Z,21.00
2022-10-17T12:30:36.084Z,21.10
2022-10-17T12:33:09.146Z,21.10
2022-10-17T12:35:37.251Z,21.10
2022-10-17T12:38:13.436Z,21.00
2022-10-17T12:40:48.431Z,21.10
2022-10-17T12:43:15.892Z,21.10
2022-10-17T12:45:47.943Z,21.10
2022-10-17T12:48:33.077Z,21.10
2022-10-17T12:53:56.813Z,21.10
2022-10-17T12:56:53.224Z,21.10
2022-10-17T12:59:20.294Z,21.10
2022-10-17T13:01:49.542Z,21.10
2022-10-17T13:04:17.782Z,21.20
2022-10-17T13:06:46.460Z,21.10
2022-10-17T13:09:27.408Z,21.20
2022-10-17T13:11:55.133Z,21.20
2022-10-17T13:14:22.992Z,21.20
2022-10-17T13:17:00.896Z,21.20
2022-10-17T13:19:30.173Z,21.20
2022-10-17T13:22:06.103Z,21.30
2022-10-17T13:24:35.518Z,21.30
2022-10-17T13:27:03.922Z,21.30
2022-10-17T13:29:32.747Z,21.30
2022-10-17T13:32:04.018Z,21.30
2022-10-17T13:34:32.045Z,21.30
2022-10-17T13:37:01.443Z,21.30
2022-10-17T13:39:44.839Z,21.30
2022-10-17T13:42:19.397Z,21.30
2022-10-17T13:44:46.842Z,21.30
2022-10-17T13:47:24.739Z,21.20
2022-10-17T13:49:55.247Z,21.20
2022-10-17T13:52:27.734Z,21.20
2022-10-17T13:55:05.687Z,21.20
2022-10-17T13:57:33.360Z,21.20
2022-10-17T14:00:01.882Z,21.20
2022-10-17T14:02:40.655Z,21.10
2022-10-17T14:05:23.619Z,21.10
2022-10-17T14:08:10.666Z,21.10
2022-10-17T14:10:39.003Z,21.10
2022-10-17T14:13:08.146Z,21.20
2022-10-17T14:15:35.874Z,21.20
2022-10-17T14:18:07.327Z,21.20
2022-10-17T14:23:34.895Z,21.20
2022-10-17T14:26:21.460Z,21.10
2022-10-17T14:28:50.341Z,21.20
2022-10-17T14:31:20.522Z,21.10
2022-10-17T14:33:50.792Z,21.10
2022-10-17T14:36:19.028Z,21.10
2022-10-17T14:38:47.480Z,21.10
2022-10-17T14:41:42.347Z,21.10
2022-10-17T14:44:16.001Z,21.20
2022-10-17T14:46:49.590Z,21.20
2022-10-17T14:49:24.543Z,21.10
2022-10-17T14:52:14.900Z,21.10
2022-10-17T14:54:46.362Z,21.10
2022-10-17T14:57:31.856Z,21.10
2022-10-17T14:59:58.884Z,21.10
2022-10-17T15:02:27.940Z,21.10
2022-10-17T15:04:55.235Z,21.10
2022-10-17T15:07:23.744Z,21.10
2022-10-17T15:09:51.938Z,21.10
2022-10-17T15:12:20.573Z,21.10
2022-10-17T15:14:48.875Z,21.10
2022-10-17T15:17:18.474Z,21.10
2022-10-17T15:19:45.641Z,21.10
2022-10-17T15:22:13.018Z,21.10
2022-10-17T15:24:40.106Z,21.10
2022-10-17T15:27:13.756Z,21.10
2022-10-17T15:29:40.965Z,21.10
2022-10-17T15:32:08.013Z,21.10
2022-10-17T15:34:35.084Z,21.10
2022-10-17T15:37:03.736Z,21.10
2022-10-17T15:39:30.787Z,21.10
2022-10-17T15:41:58.753Z,21.10
2022-10-17T15:44:25.854Z,21.10
2022-10-17T15:46:53.769Z,21.10
2022-10-17T15:49:20.836Z,21.10
2022-10-17T15:51:51.739Z,21.10
2022-10-17T15:54:22.389Z,21.10
2022-10-17T15:56:52.431Z,21.10
2022-10-17T15:59:22.521Z,21.10
2022-10-17T16:01:49.692Z,21.10
2022-10-17T16:04:18.364Z,21.10
2022-10-17T16:06:45.569Z,21.10
2022-10-17T16:09:12.721Z,21.10
2022-10-17T16:11:41.058Z,21.10
2022-10-17T16:14:11.212Z,21.10
2022-10-17T16:16:38.573Z,21.20
2022-10-17T16:19:05.705Z,21.20
2022-10-17T16:21:34.510Z,21.20
2022-10-17T16:24:02.008Z,21.30
2022-10-17T16:26:29.429Z,21.40
2022-10-17T16:28:58.106Z,21.40
2022-10-17T16:31:26.432Z,21.50
2022-10-17T16:33:54.093Z,21.50
2022-10-17T16:36:21.133Z,21.50
2022-10-17T16:38:49.527Z,21.50
2022-10-17T16:41:22.538Z,21.60
2022-10-17T16:43:50.638Z,21.50
2022-10-17T16:46:18.247Z,21.50
2022-10-17T16:48:46.143Z,21.60
2022-10-17T16:51:13.949Z,21.50
2022-10-17T16:53:43.798Z,21.50
2022-10-17T16:56:15.765Z,21.60
2022-10-17T16:58:43.185Z,21.50
2022-10-17T17:01:11.850Z,21.60
2022-10-17T17:03:40.329Z,21.50
2022-10-17T17:06:08.709Z,21.50
2022-10-17T17:08:38.713Z,21.50
2022-10-17T17:11:09.525Z,21.50
2022-10-17T17:13:36.634Z,21.50
2022-10-17T17:16:08.082Z,21.50
2022-10-17T17:18:35.652Z,21.50
2022-10-17T17:21:04.071Z,21.50
2022-10-17T17:23:32.614Z,21.50
2022-10-17T17:26:00.505Z,21.50
2022-10-17T17:28:28.208Z,21.50
2022-10-17T17:30:55.548Z,21.50
2022-10-17T17:33:23.149Z,21.40
2022-10-17T17:35:57.559Z,21.40
2022-10-17T17:38:24.642Z,21.40
2022-10-17T17:40:52.234Z,21.40
2022-10-17T17:43:19.267Z,21.40
2022-10-17T17:45:46.557Z,21.40
2022-10-17T17:48:13.949Z,21.40
2022-10-17T17:50:41.614Z,21.40
2022-10-17T17:53:09.271Z,21.40
2022-10-17T17:55:36.324Z,21.40
2022-10-17T17:58:03.696Z,21.40
2022-10-17T18:00:31.443Z,21.40
2022-10-17T18:02:58.620Z,21.40
2022-10-17T18:05:25.638Z,21.40
2022-10-17T18:07:52.764Z,21.40
2022-10-17T18:10:19.799Z,21.40
2022-10-17T18:12:46.859Z,21.40
2022-10-17T18:15:14.182Z,21.30
2022-10-17T18:17:41.717Z,21.30
2022-10-17T18:20:09.133Z,21.40
2022-10-17T18:22:36.151Z,21.30
2022-10-17T18:25:03.268Z,21.30
2022-10-17T18:27:30.467Z,21.30
2022-10-17T18:29:57.481Z,21.30
2022-10-17T18:32:24.640Z,21.30
2022-10-17T18:34:51.842Z,21.30
2022-10-17T18:37:19.070Z,21.30
2022-10-17T18:39:48.403Z,21.30
2022-10-17T18:42:15.453Z,21.30
2022-10-17T18:44:42.461Z,21.30
2022-10-17T18:47:10.617Z,21.30
2022-10-17T18:49:37.718Z,21.30
2022-10-17T18:52:04.891Z,21.30
2022-10-17T18:54:33.455Z,21.30
2022-10-17T18:57:00.700Z,21.30
2022-10-17T18:59:27.784Z,21.30
2022-10-17T19:01:54.849Z,21.30
2022-10-17T19:04:21.986Z,21.30
2022-10-17T19:06:49.106Z,21.30
2022-10-17T19:09:16.315Z,21.30
2022-10-17T19:11:43.461Z,21.30
2022-10-17T19:14:14.404Z,21.30
2022-10-17T19:16:43.335Z,21.30
2022-10-17T19:19:12.415Z,21.30
2022-10-17T19:21:39.804Z,21.30
2022-10-17T19:24:07.704Z,21.30
2022-10-17T19:26:35.538Z,21.30
2022-10-17T19:29:03.087Z,21.30
2022-10-17T19:31:31.655Z,21.30
2022-10-17T19:33:58.875Z,21.30
2022-10-17T19:36:30.465Z,21.30
2022-10-17T19:39:01.863Z,21.30
2022-10-17T19:41:29.076Z,21.20
2022-10-17T19:43:56.132Z,21.30
2022-10-17T19:46:24.460Z,21.30
2022-10-17T19:48:51.769Z,21.30
2022-10-17T19:51:20.457Z,21.30
2022-10-17T19:53:47.535Z,21.30
2022-10-17T19:56:18.487Z,21.30
2022-10-17T19:58:46.665Z,21.30
2022-10-17T20:01:14.841Z,21.30
2022-10-17T20:03:41.967Z,21.30
2022-10-17T20:06:09.183Z,21.30
2022-10-17T20:08:37.399Z,21.30
2022-10-17T20:11:08.643Z,21.30
2022-10-17T20:13:36.386Z,21.30
2022-10-17T20:16:03.550Z,21.30
2022-10-17T20:18:30.670Z,21.30
2022-10-17T20:21:02.358Z,21.20
2022-10-17T20:23:29.443Z,21.20
2022-10-17T20:26:06.762Z,21.20
2022-10-17T20:28:46.563Z,21.20
2022-10-17T20:31:14.271Z,21.20
2022-10-17T20:33:44.424Z,21.20
2022-10-17T20:36:12.115Z,21.20
2022-10-17T20:38:39.173Z,21.20
2022-10-17T20:41:09.832Z,21.20
2022-10-17T20:43:37.018Z,21.20
2022-10-17T20:46:22.016Z,21.20
2022-10-17T20:48:54.110Z,21.20
2022-10-17T20:51:21.534Z,21.20
2022-10-17T20:53:49.056Z,21.20
2022-10-17T20:56:20.847Z,21.20
2022-10-17T20:58:51.872Z,21.20
2022-10-17T21:01:19.121Z,21.20
2022-10-17T21:03:46.686Z,21.20
2022-10-17T21:06:14.655Z,21.20
2022-10-17T21:08:41.954Z,21.20
2022-10-17T21:11:13.538Z,21.10
2022-10-17T21:13:40.727Z,21.20
2022-10-17T21:16:09.209Z,21.20
2022-10-17T21:18:36.544Z,21.20
2022-10-17T21:21:29.697Z,21.20
2022-10-17T21:24:00.313Z,21.10
2022-10-17T21:26:27.690Z,21.10
2022-10-17T21:28:55.046Z,21.10
2022-10-17T21:31:27.549Z,21.10
2022-10-17T21:33:55.663Z,21.10
2022-10-17T21:36:23.386Z,21.10
2022-10-17T21:38:51.639Z,21.10
2022-10-17T21:41:19.940Z,21.10
2022-10-17T21:43:47.059Z,21.10
2022-10-17T21:46:18.170Z,21.10
2022-10-17T21:48:45.912Z,21.10
2022-10-17T21:51:14.337Z,21.10
2022-10-17T21:53:41.633Z,21.10
2022-10-17T21:56:14.112Z,21.10
2022-10-17T21:58:41.532Z,21.10
2022-10-17T22:01:08.563Z,21.10
2022-10-17T22:03:36.297Z,21.10
2022-10-17T22:06:12.915Z,21.10
2022-10-17T22:08:51.584Z,21.10
2022-10-17T22:11:19.707Z,21.10
2022-10-17T22:13:46.779Z,21.10
2022-10-17T22:16:15.235Z,21.10
2022-10-17T22:18:42.683Z,21.10
2022-10-17T22:21:13.784Z,21.10
2022-10-17T22:23:41.476Z,21.10
2022-10-17T22:26:08.840Z,21.10
2022-10-17T22:28:36.492Z,21.10
2022-10-17T22:31:03.597Z,21.10
2022-10-17T22:33:34.412Z,21.10
2022-10-17T22:36:02.051Z,21.10
2022-10-17T22:38:29.290Z,21.10
2022-10-17T22:40:56.312Z,21.10
2022-10-17T22:43:23.417Z,21.10
2022-10-17T22:45:54.384Z,21.10
2022-10-17T22:48:22.045Z,21.10
2022-10-17T22:50:49.723Z,21.10
2022-10-17T22:53:26.225Z,21.10
2022-10-17T22:55:54.093Z,21.10
2022-10-17T22:58:21.698Z,21.00
2022-10-17T23:00:49.234Z,21.00
2022-10-17T23:03:16.598Z,21.10
2022-10-17T23:05:44.082Z,21.10
2022-10-17T23:08:11.738Z,21.00
2022-10-17T23:10:38.765Z,21.00
2022-10-17T23:13:06.262Z,21.00
2022-10-17T23:15:33.892Z,21.00
2022-10-17T23:18:01.308Z,21.00
2022-10-17T23:20:29.000Z,21.00
2022-10-17T23:22:56.257Z,21.00
2022-10-17T23:25:23.630Z,21.00
2022-10-17T23:27:50.730Z,21.00
2022-10-17T23:30:18.117Z,21.00
2022-10-17T23:32:45.194Z,21.00
2022-10-17T23:35:12.386Z,21.00
2022-10-17T23:37:39.460Z,21.00
2022-10-17T23:40:06.717Z,21.00
2022-10-17T23:42:33.725Z,21.00
2022-10-17T23:45:00.789Z,21.00
2022-10-17T23:47:27.969Z,21.00
2022-10-17T23:49:55.317Z,21.00
2022-10-17T23:52:22.414Z,21.00
2022-10-17T23:54:49.601Z,21.00
2022-10-17T23:57:16.645Z,21.00
2022-10-17T23:59:43.694Z,21.00
